sensor_id;sensor_type;location;lat;lon;timestamp;temperature;humidity
1880;DHT22;49285;49.002;8.390;2023-04-03T00:01:26;8.60;99.90
1880;DHT22;49285;49.002;8.390;2023-04-03T00:03:52;8.50;99.90
1880;DHT22;49285;49.002;8.390;2023-04-03T00:06:17;8.60;99.90
1880;DHT22;49285;49.002;8.390;2023-04-03T00:08:43;8.60;99.90
1880;DHT22;49285;49.002;8.390;2023-04-03T00:11:09;8.60;99.90
1880;DHT22;49285;49.002;8.390;2023-04-03T00:13:36;8.60;99.90
1880;DHT22;49285;49.002;8.390;2023-04-03T00:16:01;8.60;99.90
1880;DHT22;49285;49.002;8.390;2023-04-03T00:18:28;8.60;99.90
1880;DHT22;49285;49.002;8.390;2023-04-03T00:20:54;8.50;99.90
1880;DHT22;49285;49.002;8.390;2023-04-03T00:23:20;8.50;99.90
1880;DHT22;49285;49.002;8.390;2023-04-03T00:25:46;8.50;99.90
1880;DHT22;49285;49.002;8.390;2023-04-03T00:28:11;8.50;99.90
1880;DHT22;49285;49.002;8.390;2023-04-03T00:30:37;8.50;99.90
1880;DHT22;49285;49.002;8.390;2023-04-03T00:33:03;8.50;99.90
1880;DHT22;49285;49.002;8.390;2023-04-03T00:35:29;8.50;99.90
1880;DHT22;49285;49.002;8.390;2023-04-03T00:37:55;8.50;99.90
1880;DHT22;49285;49.002;8.390;2023-04-03T00:40:23;8.50;99.90
1880;DHT22;49285;49.002;8.390;2023-04-03T00:42:54;8.50;99.90
1880;DHT22;49285;49.002;8.390;2023-04-03T00:45:33;8.50;99.90
1880;DHT22;49285;49.002;8.390;2023-04-03T00:48:00;8.50;99.90
1880;DHT22;49285;49.002;8.390;2023-04-03T00:50:28;8.50;99.90
1880;DHT22;49285;49.002;8.390;2023-04-03T00:52:55;8.50;99.90
1880;DHT22;49285;49.002;8.390;2023-04-03T00:55:21;8.50;99.90
1880;DHT22;49285;49.002;8.390;2023-04-03T00:57:48;8.50;99.90
1880;DHT22;49285;49.002;8.390;2023-04-03T01:00:17;8.50;99.90
1880;DHT22;49285;49.002;8.390;2023-04-03T01:02:43;8.50;99.90
1880;DHT22;49285;49.002;8.390;2023-04-03T01:05:10;8.50;99.90
1880;DHT22;49285;49.002;8.390;2023-04-03T01:07:36;8.50;99.90
1880;DHT22;49285;49.002;8.390;2023-04-03T01:10:06;8.50;99.90
1880;DHT22;49285;49.002;8.390;2023-04-03T01:12:37;8.50;99.90
1880;DHT22;49285;49.002;8.390;2023-04-03T01:15:22;8.50;99.90
1880;DHT22;49285;49.002;8.390;2023-04-03T01:17:55;8.50;99.90
1880;DHT22;49285;49.002;8.390;2023-04-03T01:25:51;8.40;99.90
1880;DHT22;49285;49.002;8.390;2023-04-03T01:28:23;8.40;99.90
1880;DHT22;49285;49.002;8.390;2023-04-03T01:31:03;8.30;99.90
1880;DHT22;49285;49.002;8.390;2023-04-03T01:33:33;8.30;99.90
1880;DHT22;49285;49.002;8.390;2023-04-03T01:35:58;8.30;99.90
1880;DHT22;49285;49.002;8.390;2023-04-03T01:38:24;8.20;99.90
1880;DHT22;49285;49.002;8.390;2023-04-03T01:40:50;8.20;99.90
1880;DHT22;49285;49.002;8.390;2023-04-03T01:43:16;8.20;99.90
1880;DHT22;49285;49.002;8.390;2023-04-03T01:45:41;8.20;99.90
1880;DHT22;49285;49.002;8.390;2023-04-03T01:48:07;8.20;99.90
1880;DHT22;49285;49.002;8.390;2023-04-03T01:50:33;8.20;99.90
1880;DHT22;49285;49.002;8.390;2023-04-03T01:52:58;8.20;99.90
1880;DHT22;49285;49.002;8.390;2023-04-03T01:55:24;8.20;99.90
1880;DHT22;49285;49.002;8.390;2023-04-03T01:57:50;8.10;99.90
1880;DHT22;49285;49.002;8.390;2023-04-03T02:00:15;8.00;99.90
1880;DHT22;49285;49.002;8.390;2023-04-03T02:02:41;8.00;99.90
1880;DHT22;49285;49.002;8.390;2023-04-03T02:05:07;8.00;99.90
1880;DHT22;49285;49.002;8.390;2023-04-03T02:07:33;8.00;99.90
1880;DHT22;49285;49.002;8.390;2023-04-03T02:09:58;7.90;99.90
1880;DHT22;49285;49.002;8.390;2023-04-03T02:12:24;7.90;99.90
1880;DHT22;49285;49.002;8.390;2023-04-03T02:14:50;7.90;99.90
1880;DHT22;49285;49.002;8.390;2023-04-03T02:17:16;7.90;99.90
1880;DHT22;49285;49.002;8.390;2023-04-03T02:19:41;7.80;99.90
1880;DHT22;49285;49.002;8.390;2023-04-03T02:22:07;7.70;99.90
1880;DHT22;49285;49.002;8.390;2023-04-03T02:24:32;7.70;99.90
1880;DHT22;49285;49.002;8.390;2023-04-03T02:26:58;7.70;99.90
1880;DHT22;49285;49.002;8.390;2023-04-03T02:29:24;7.70;99.90
1880;DHT22;49285;49.002;8.390;2023-04-03T02:31:50;7.70;99.90
1880;DHT22;49285;49.002;8.390;2023-04-03T02:34:16;7.70;99.90
1880;DHT22;49285;49.002;8.390;2023-04-03T02:36:41;7.60;99.90
1880;DHT22;49285;49.002;8.390;2023-04-03T02:39:07;7.60;99.90
1880;DHT22;49285;49.002;8.390;2023-04-03T02:41:33;7.50;99.90
1880;DHT22;49285;49.002;8.390;2023-04-03T02:44:02;7.50;99.90
1880;DHT22;49285;49.002;8.390;2023-04-03T02:46:28;7.50;99.90
1880;DHT22;49285;49.002;8.390;2023-04-03T02:48:54;7.40;99.90
1880;DHT22;49285;49.002;8.390;2023-04-03T02:51:19;7.40;99.90
1880;DHT22;49285;49.002;8.390;2023-04-03T02:53:45;7.40;99.90
1880;DHT22;49285;49.002;8.390;2023-04-03T02:56:10;7.30;99.90
1880;DHT22;49285;49.002;8.390;2023-04-03T02:58:36;7.30;99.90
1880;DHT22;49285;49.002;8.390;2023-04-03T03:01:02;7.30;99.90
1880;DHT22;49285;49.002;8.390;2023-04-03T03:03:27;7.20;99.90
1880;DHT22;49285;49.002;8.390;2023-04-03T03:06:11;7.20;99.90
1880;DHT22;49285;49.002;8.390;2023-04-03T03:08:37;7.20;99.90
1880;DHT22;49285;49.002;8.390;2023-04-03T03:11:04;7.20;99.90
1880;DHT22;49285;49.002;8.390;2023-04-03T03:13:30;7.10;99.90
1880;DHT22;49285;49.002;8.390;2023-04-03T03:15:56;7.10;99.90
1880;DHT22;49285;49.002;8.390;2023-04-03T03:18:22;7.10;99.90
1880;DHT22;49285;49.002;8.390;2023-04-03T03:20:51;7.00;99.90
1880;DHT22;49285;49.002;8.390;2023-04-03T03:23:17;7.00;99.90
1880;DHT22;49285;49.002;8.390;2023-04-03T03:25:43;6.90;99.90
1880;DHT22;49285;49.002;8.390;2023-04-03T03:28:08;6.90;99.90
1880;DHT22;49285;49.002;8.390;2023-04-03T03:30:34;6.90;99.90
1880;DHT22;49285;49.002;8.390;2023-04-03T03:33:00;6.90;99.90
1880;DHT22;49285;49.002;8.390;2023-04-03T03:35:26;6.90;99.90
1880;DHT22;49285;49.002;8.390;2023-04-03T03:37:52;6.80;99.90
1880;DHT22;49285;49.002;8.390;2023-04-03T03:40:17;6.90;99.90
1880;DHT22;49285;49.002;8.390;2023-04-03T03:42:43;6.90;99.90
1880;DHT22;49285;49.002;8.390;2023-04-03T03:45:09;6.80;99.90
1880;DHT22;49285;49.002;8.390;2023-04-03T03:47:35;6.80;99.90
1880;DHT22;49285;49.002;8.390;2023-04-03T03:50:01;6.80;99.90
1880;DHT22;49285;49.002;8.390;2023-04-03T03:52:26;6.80;99.90
1880;DHT22;49285;49.002;8.390;2023-04-03T03:54:52;6.80;99.90
1880;DHT22;49285;49.002;8.390;2023-04-03T03:57:18;6.80;99.90
1880;DHT22;49285;49.002;8.390;2023-04-03T03:59:43;6.80;99.90
1880;DHT22;49285;49.002;8.390;2023-04-03T04:02:10;6.80;99.90
1880;DHT22;49285;49.002;8.390;2023-04-03T04:04:36;6.90;99.90
1880;DHT22;49285;49.002;8.390;2023-04-03T04:07:02;6.90;99.90
1880;DHT22;49285;49.002;8.390;2023-04-03T04:09:28;6.90;99.90
1880;DHT22;49285;49.002;8.390;2023-04-03T04:11:54;6.90;99.90
1880;DHT22;49285;49.002;8.390;2023-04-03T04:14:19;6.80;99.90
1880;DHT22;49285;49.002;8.390;2023-04-03T04:16:48;6.90;99.90
1880;DHT22;49285;49.002;8.390;2023-04-03T04:19:14;6.90;99.90
1880;DHT22;49285;49.002;8.390;2023-04-03T04:21:40;6.90;99.90
1880;DHT22;49285;49.002;8.390;2023-04-03T04:24:07;6.90;99.90
1880;DHT22;49285;49.002;8.390;2023-04-03T04:26:33;6.90;99.90
1880;DHT22;49285;49.002;8.390;2023-04-03T04:28:58;6.90;99.90
1880;DHT22;49285;49.002;8.390;2023-04-03T04:31:24;6.90;99.90
1880;DHT22;49285;49.002;8.390;2023-04-03T04:33:50;7.00;99.90
1880;DHT22;49285;49.002;8.390;2023-04-03T04:36:15;7.00;99.90
1880;DHT22;49285;49.002;8.390;2023-04-03T04:38:41;7.00;99.90
1880;DHT22;49285;49.002;8.390;2023-04-03T04:41:07;7.00;99.90
1880;DHT22;49285;49.002;8.390;2023-04-03T04:43:33;7.00;99.90
1880;DHT22;49285;49.002;8.390;2023-04-03T04:46:03;7.00;99.90
1880;DHT22;49285;49.002;8.390;2023-04-03T04:48:29;7.00;99.90
1880;DHT22;49285;49.002;8.390;2023-04-03T04:50:54;7.10;99.90
1880;DHT22;49285;49.002;8.390;2023-04-03T04:53:20;7.00;99.90
1880;DHT22;49285;49.002;8.390;2023-04-03T04:55:45;7.10;99.90
1880;DHT22;49285;49.002;8.390;2023-04-03T04:58:11;7.00;99.90
1880;DHT22;49285;49.002;8.390;2023-04-03T05:00:36;7.10;99.90
1880;DHT22;49285;49.002;8.390;2023-04-03T05:03:02;7.00;99.90
1880;DHT22;49285;49.002;8.390;2023-04-03T05:05:28;7.00;99.90
1880;DHT22;49285;49.002;8.390;2023-04-03T05:07:53;7.00;99.90
1880;DHT22;49285;49.002;8.390;2023-04-03T05:10:19;7.00;99.90
1880;DHT22;49285;49.002;8.390;2023-04-03T05:12:44;6.90;99.90
1880;DHT22;49285;49.002;8.390;2023-04-03T05:15:10;6.90;99.90
1880;DHT22;49285;49.002;8.390;2023-04-03T05:17:36;6.90;99.90
1880;DHT22;49285;49.002;8.390;2023-04-03T05:20:02;6.90;99.90
1880;DHT22;49285;49.002;8.390;2023-04-03T05:22:29;6.80;99.90
1880;DHT22;49285;49.002;8.390;2023-04-03T05:24:54;6.80;99.90
1880;DHT22;49285;49.002;8.390;2023-04-03T05:27:20;6.70;99.90
1880;DHT22;49285;49.002;8.390;2023-04-03T05:29:46;6.70;99.90
1880;DHT22;49285;49.002;8.390;2023-04-03T05:32:12;6.60;99.90
1880;DHT22;49285;49.002;8.390;2023-04-03T05:34:37;6.60;99.90
1880;DHT22;49285;49.002;8.390;2023-04-03T05:37:03;6.60;99.90
1880;DHT22;49285;49.002;8.390;2023-04-03T05:39:30;6.60;99.90
1880;DHT22;49285;49.002;8.390;2023-04-03T05:41:57;6.50;99.90
1880;DHT22;49285;49.002;8.390;2023-04-03T05:44:22;6.50;99.90
1880;DHT22;49285;49.002;8.390;2023-04-03T05:46:48;6.50;99.90
1880;DHT22;49285;49.002;8.390;2023-04-03T05:49:14;6.50;99.90
1880;DHT22;49285;49.002;8.390;2023-04-03T05:51:40;6.50;99.90
1880;DHT22;49285;49.002;8.390;2023-04-03T05:56:40;6.60;99.90
1880;DHT22;49285;49.002;8.390;2023-04-03T05:59:05;6.60;99.90
1880;DHT22;49285;49.002;8.390;2023-04-03T06:01:32;6.60;99.90
1880;DHT22;49285;49.002;8.390;2023-04-03T06:03:59;6.60;99.90
1880;DHT22;49285;49.002;8.390;2023-04-03T06:06:25;6.70;99.90
1880;DHT22;49285;49.002;8.390;2023-04-03T06:08:50;6.70;99.90
1880;DHT22;49285;49.002;8.390;2023-04-03T06:11:16;6.70;99.90
1880;DHT22;49285;49.002;8.390;2023-04-03T06:13:42;6.70;99.90
1880;DHT22;49285;49.002;8.390;2023-04-03T06:16:11;6.70;99.90
1880;DHT22;49285;49.002;8.390;2023-04-03T06:18:39;6.80;99.90
1880;DHT22;49285;49.002;8.390;2023-04-03T06:21:06;6.80;99.90
1880;DHT22;49285;49.002;8.390;2023-04-03T06:23:33;6.80;99.90
1880;DHT22;49285;49.002;8.390;2023-04-03T06:25:58;6.90;99.90
1880;DHT22;49285;49.002;8.390;2023-04-03T06:28:25;6.90;99.90
1880;DHT22;49285;49.002;8.390;2023-04-03T06:30:50;7.00;99.90
1880;DHT22;49285;49.002;8.390;2023-04-03T06:33:16;7.00;99.90
1880;DHT22;49285;49.002;8.390;2023-04-03T06:35:41;7.00;99.90
1880;DHT22;49285;49.002;8.390;2023-04-03T06:38:07;7.00;99.90
1880;DHT22;49285;49.002;8.390;2023-04-03T06:40:35;6.90;99.90
1880;DHT22;49285;49.002;8.390;2023-04-03T06:43:01;6.90;99.90
1880;DHT22;49285;49.002;8.390;2023-04-03T06:45:27;6.90;99.90
1880;DHT22;49285;49.002;8.390;2023-04-03T06:47:53;7.00;99.90
1880;DHT22;49285;49.002;8.390;2023-04-03T06:50:19;7.00;99.90
1880;DHT22;49285;49.002;8.390;2023-04-03T06:52:45;7.00;99.90
1880;DHT22;49285;49.002;8.390;2023-04-03T06:55:11;7.00;99.90
1880;DHT22;49285;49.002;8.390;2023-04-03T06:57:37;7.00;99.90
1880;DHT22;49285;49.002;8.390;2023-04-03T07:00:04;7.10;99.90
1880;DHT22;49285;49.002;8.390;2023-04-03T07:02:30;7.10;99.90
1880;DHT22;49285;49.002;8.390;2023-04-03T07:04:56;7.10;99.90
1880;DHT22;49285;49.002;8.390;2023-04-03T07:07:22;7.10;99.90
1880;DHT22;49285;49.002;8.390;2023-04-03T07:09:47;7.10;99.90
1880;DHT22;49285;49.002;8.390;2023-04-03T07:12:13;7.10;99.90
1880;DHT22;49285;49.002;8.390;2023-04-03T07:14:39;7.00;99.90
1880;DHT22;49285;49.002;8.390;2023-04-03T07:17:05;7.00;99.90
1880;DHT22;49285;49.002;8.390;2023-04-03T07:19:30;7.10;99.90
1880;DHT22;49285;49.002;8.390;2023-04-03T07:21:56;7.10;99.90
1880;DHT22;49285;49.002;8.390;2023-04-03T07:24:22;7.10;99.90
1880;DHT22;49285;49.002;8.390;2023-04-03T07:26:51;7.20;99.90
1880;DHT22;49285;49.002;8.390;2023-04-03T07:29:17;7.20;99.90
1880;DHT22;49285;49.002;8.390;2023-04-03T07:31:44;7.30;99.90
1880;DHT22;49285;49.002;8.390;2023-04-03T07:34:10;7.40;99.90
1880;DHT22;49285;49.002;8.390;2023-04-03T07:36:36;7.50;99.90
1880;DHT22;49285;49.002;8.390;2023-04-03T07:39:02;7.50;99.90
1880;DHT22;49285;49.002;8.390;2023-04-03T07:41:28;7.60;99.90
1880;DHT22;49285;49.002;8.390;2023-04-03T07:43:55;7.50;99.90
1880;DHT22;49285;49.002;8.390;2023-04-03T07:46:22;7.60;99.90
1880;DHT22;49285;49.002;8.390;2023-04-03T07:48:48;7.60;99.90
1880;DHT22;49285;49.002;8.390;2023-04-03T07:51:13;7.60;99.90
1880;DHT22;49285;49.002;8.390;2023-04-03T07:53:40;7.60;99.90
1880;DHT22;49285;49.002;8.390;2023-04-03T07:56:06;7.70;99.90
1880;DHT22;49285;49.002;8.390;2023-04-03T07:58:32;7.70;99.90
1880;DHT22;49285;49.002;8.390;2023-04-03T08:00:58;7.80;99.90
1880;DHT22;49285;49.002;8.390;2023-04-03T08:03:24;7.80;99.90
1880;DHT22;49285;49.002;8.390;2023-04-03T08:05:50;7.90;99.90
1880;DHT22;49285;49.002;8.390;2023-04-03T08:08:19;7.90;99.90
1880;DHT22;49285;49.002;8.390;2023-04-03T08:10:52;8.00;99.90
1880;DHT22;49285;49.002;8.390;2023-04-03T08:13:18;8.10;99.90
1880;DHT22;49285;49.002;8.390;2023-04-03T08:15:45;8.20;99.90
1880;DHT22;49285;49.002;8.390;2023-04-03T08:18:10;8.30;99.90
1880;DHT22;49285;49.002;8.390;2023-04-03T08:20:38;8.30;99.90
1880;DHT22;49285;49.002;8.390;2023-04-03T08:23:05;8.40;99.90
1880;DHT22;49285;49.002;8.390;2023-04-03T08:25:31;8.40;99.90
1880;DHT22;49285;49.002;8.390;2023-04-03T08:27:57;8.40;99.90
1880;DHT22;49285;49.002;8.390;2023-04-03T08:30:22;8.40;99.90
1880;DHT22;49285;49.002;8.390;2023-04-03T08:32:48;8.50;99.90
1880;DHT22;49285;49.002;8.390;2023-04-03T08:35:13;8.50;99.90
1880;DHT22;49285;49.002;8.390;2023-04-03T08:37:40;8.50;99.90
1880;DHT22;49285;49.002;8.390;2023-04-03T08:40:07;8.70;99.90
1880;DHT22;49285;49.002;8.390;2023-04-03T08:45:12;9.00;99.90
1880;DHT22;49285;49.002;8.390;2023-04-03T08:47:53;9.10;99.90
1880;DHT22;49285;49.002;8.390;2023-04-03T08:50:26;9.20;99.90
1880;DHT22;49285;49.002;8.390;2023-04-03T08:52:58;9.30;99.90
1880;DHT22;49285;49.002;8.390;2023-04-03T08:55:34;9.50;99.90
1880;DHT22;49285;49.002;8.390;2023-04-03T08:58:14;9.60;99.90
1880;DHT22;49285;49.002;8.390;2023-04-03T09:01:18;9.70;99.90
1880;DHT22;49285;49.002;8.390;2023-04-03T09:03:45;9.70;99.90
1880;DHT22;49285;49.002;8.390;2023-04-03T09:06:12;9.80;99.90
1880;DHT22;49285;49.002;8.390;2023-04-03T09:14:07;9.70;99.90
1880;DHT22;49285;49.002;8.390;2023-04-03T09:17:00;9.70;99.90
1880;DHT22;49285;49.002;8.390;2023-04-03T09:22:11;9.80;99.90
1880;DHT22;49285;49.002;8.390;2023-04-03T09:24:39;9.80;99.90
1880;DHT22;49285;49.002;8.390;2023-04-03T09:27:09;9.90;99.90
1880;DHT22;49285;49.002;8.390;2023-04-03T09:29:39;9.90;99.90
1880;DHT22;49285;49.002;8.390;2023-04-03T09:32:28;10.00;99.90
1880;DHT22;49285;49.002;8.390;2023-04-03T09:34:56;10.00;99.90
1880;DHT22;49285;49.002;8.390;2023-04-03T09:37:59;10.00;99.90
1880;DHT22;49285;49.002;8.390;2023-04-03T09:42:58;10.10;99.90
1880;DHT22;49285;49.002;8.390;2023-04-03T09:45:30;10.10;99.90
1880;DHT22;49285;49.002;8.390;2023-04-03T09:48:17;10.10;99.90
1880;DHT22;49285;49.002;8.390;2023-04-03T09:53:45;10.20;99.90
1880;DHT22;49285;49.002;8.390;2023-04-03T09:58:51;10.30;99.90
1880;DHT22;49285;49.002;8.390;2023-04-03T10:01:31;10.40;99.90
1880;DHT22;49285;49.002;8.390;2023-04-03T10:04:17;10.40;99.90
1880;DHT22;49285;49.002;8.390;2023-04-03T10:06:48;10.50;99.90
1880;DHT22;49285;49.002;8.390;2023-04-03T10:14:34;11.00;99.90
1880;DHT22;49285;49.002;8.390;2023-04-03T10:19:57;11.20;99.50
1880;DHT22;49285;49.002;8.390;2023-04-03T10:32:54;12.20;95.60
1880;DHT22;49285;49.002;8.390;2023-04-03T10:41:09;12.90;92.60
1880;DHT22;49285;49.002;8.390;2023-04-03T10:43:50;13.00;91.20
1880;DHT22;49285;49.002;8.390;2023-04-03T10:46:32;13.10;88.60
1880;DHT22;49285;49.002;8.390;2023-04-03T10:51:43;13.30;87.40
1880;DHT22;49285;49.002;8.390;2023-04-03T10:54:30;13.40;84.60
1880;DHT22;49285;49.002;8.390;2023-04-03T10:57:06;13.50;85.00
1880;DHT22;49285;49.002;8.390;2023-04-03T10:59:38;13.70;82.00
1880;DHT22;49285;49.002;8.390;2023-04-03T11:02:25;13.80;78.90
1880;DHT22;49285;49.002;8.390;2023-04-03T11:05:07;13.80;77.50
1880;DHT22;49285;49.002;8.390;2023-04-03T11:07:42;13.70;76.90
1880;DHT22;49285;49.002;8.390;2023-04-03T11:10:17;13.70;77.20
1880;DHT22;49285;49.002;8.390;2023-04-03T11:13:06;13.80;78.60
1880;DHT22;49285;49.002;8.390;2023-04-03T11:15:33;13.90;78.00
1880;DHT22;49285;49.002;8.390;2023-04-03T11:18:21;13.90;75.30
1880;DHT22;49285;49.002;8.390;2023-04-03T11:23:35;13.80;71.60
1880;DHT22;49285;49.002;8.390;2023-04-03T11:26:11;13.70;71.10
1880;DHT22;49285;49.002;8.390;2023-04-03T11:28:37;13.60;69.80
1880;DHT22;49285;49.002;8.390;2023-04-03T11:31:33;13.40;70.30
1880;DHT22;49285;49.002;8.390;2023-04-03T11:36:48;13.40;70.40
1880;DHT22;49285;49.002;8.390;2023-04-03T11:39:28;13.60;70.10
1880;DHT22;49285;49.002;8.390;2023-04-03T11:41:54;13.70;70.10
1880;DHT22;49285;49.002;8.390;2023-04-03T11:44:38;13.70;69.60
1880;DHT22;49285;49.002;8.390;2023-04-03T11:47:11;13.80;69.10
1880;DHT22;49285;49.002;8.390;2023-04-03T11:50:00;13.80;69.10
1880;DHT22;49285;49.002;8.390;2023-04-03T12:19:02;13.40;67.80
1880;DHT22;49285;49.002;8.390;2023-04-03T12:29:36;13.60;67.30
1880;DHT22;49285;49.002;8.390;2023-04-03T12:45:51;13.80;68.30
1880;DHT22;49285;49.002;8.390;2023-04-03T12:48:22;13.80;67.80
1880;DHT22;49285;49.002;8.390;2023-04-03T12:50:50;13.60;67.70
1880;DHT22;49285;49.002;8.390;2023-04-03T12:53:25;13.40;67.90
1880;DHT22;49285;49.002;8.390;2023-04-03T12:55:55;13.40;68.40
1880;DHT22;49285;49.002;8.390;2023-04-03T12:58:24;13.50;67.70
1880;DHT22;49285;49.002;8.390;2023-04-03T13:01:11;13.40;67.00
1880;DHT22;49285;49.002;8.390;2023-04-03T13:03:43;13.30;67.40
1880;DHT22;49285;49.002;8.390;2023-04-03T13:06:38;13.20;67.50
1880;DHT22;49285;49.002;8.390;2023-04-03T13:09:04;13.10;68.00
1880;DHT22;49285;49.002;8.390;2023-04-03T13:11:35;13.10;67.30
1880;DHT22;49285;49.002;8.390;2023-04-03T13:14:04;13.00;67.30
1880;DHT22;49285;49.002;8.390;2023-04-03T13:16:32;13.10;67.80
1880;DHT22;49285;49.002;8.390;2023-04-03T13:18:58;13.10;67.60
1880;DHT22;49285;49.002;8.390;2023-04-03T13:21:30;13.10;68.10
1880;DHT22;49285;49.002;8.390;2023-04-03T13:23:59;13.10;67.30
1880;DHT22;49285;49.002;8.390;2023-04-03T13:26:31;12.90;68.00
1880;DHT22;49285;49.002;8.390;2023-04-03T13:29:04;12.90;68.20
1880;DHT22;49285;49.002;8.390;2023-04-03T13:31:36;13.00;67.50
1880;DHT22;49285;49.002;8.390;2023-04-03T13:34:06;13.10;67.50
1880;DHT22;49285;49.002;8.390;2023-04-03T13:36:38;13.20;66.50
1880;DHT22;49285;49.002;8.390;2023-04-03T13:41:43;13.50;65.50
1880;DHT22;49285;49.002;8.390;2023-04-03T13:44:27;13.70;65.20
1880;DHT22;49285;49.002;8.390;2023-04-03T13:46:58;14.00;64.90
1880;DHT22;49285;49.002;8.390;2023-04-03T13:51:56;14.70;62.30
1880;DHT22;49285;49.002;8.390;2023-04-03T13:54:28;15.90;63.80
1880;DHT22;49285;49.002;8.390;2023-04-03T13:56:57;17.90;61.10
1880;DHT22;49285;49.002;8.390;2023-04-03T13:59:34;20.50;58.90
1880;DHT22;49285;49.002;8.390;2023-04-03T14:04:32;21.10;50.20
1880;DHT22;49285;49.002;8.390;2023-04-03T14:06:59;20.30;48.30
1880;DHT22;49285;49.002;8.390;2023-04-03T14:09:26;19.40;47.60
1880;DHT22;49285;49.002;8.390;2023-04-03T14:11:55;18.80;48.10
1880;DHT22;49285;49.002;8.390;2023-04-03T14:14:27;18.10;48.00
1880;DHT22;49285;49.002;8.390;2023-04-03T14:16:56;17.60;48.60
1880;DHT22;49285;49.002;8.390;2023-04-03T14:19:35;17.00;48.80
1880;DHT22;49285;49.002;8.390;2023-04-03T14:22:11;16.60;49.10
1880;DHT22;49285;49.002;8.390;2023-04-03T14:24:37;16.30;50.00
1880;DHT22;49285;49.002;8.390;2023-04-03T14:29:44;15.60;52.40
1880;DHT22;49285;49.002;8.390;2023-04-03T14:32:14;15.40;53.20
1880;DHT22;49285;49.002;8.390;2023-04-03T14:34:40;15.20;53.90
1880;DHT22;49285;49.002;8.390;2023-04-03T14:37:11;14.90;54.20
1880;DHT22;49285;49.002;8.390;2023-04-03T14:39:37;14.70;54.80
1880;DHT22;49285;49.002;8.390;2023-04-03T14:42:03;14.50;55.70
1880;DHT22;49285;49.002;8.390;2023-04-03T14:44:28;14.60;55.90
1880;DHT22;49285;49.002;8.390;2023-04-03T14:46:54;15.00;56.30
1880;DHT22;49285;49.002;8.390;2023-04-03T14:49:25;15.90;55.70
1880;DHT22;49285;49.002;8.390;2023-04-03T14:51:53;15.80;54.20
1880;DHT22;49285;49.002;8.390;2023-04-03T14:54:21;15.30;53.30
1880;DHT22;49285;49.002;8.390;2023-04-03T14:56:51;14.90;53.40
1880;DHT22;49285;49.002;8.390;2023-04-03T14:59:17;14.60;53.50
1880;DHT22;49285;49.002;8.390;2023-04-03T15:01:45;14.30;53.80
1880;DHT22;49285;49.002;8.390;2023-04-03T15:04:19;14.10;54.30
1880;DHT22;49285;49.002;8.390;2023-04-03T15:06:47;14.20;55.10
1880;DHT22;49285;49.002;8.390;2023-04-03T15:09:25;14.20;54.90
1880;DHT22;49285;49.002;8.390;2023-04-03T15:11:52;14.30;55.10
1880;DHT22;49285;49.002;8.390;2023-04-03T15:14:18;14.50;54.80
1880;DHT22;49285;49.002;8.390;2023-04-03T15:16:44;14.60;53.90
1880;DHT22;49285;49.002;8.390;2023-04-03T15:19:11;14.70;53.50
1880;DHT22;49285;49.002;8.390;2023-04-03T15:21:37;14.70;52.70
1880;DHT22;49285;49.002;8.390;2023-04-03T15:24:03;14.50;52.30
1880;DHT22;49285;49.002;8.390;2023-04-03T15:26:29;14.40;52.30
1880;DHT22;49285;49.002;8.390;2023-04-03T15:28:54;14.30;52.30
1880;DHT22;49285;49.002;8.390;2023-04-03T15:31:20;13.90;52.00
1880;DHT22;49285;49.002;8.390;2023-04-03T15:33:46;13.80;52.70
1880;DHT22;49285;49.002;8.390;2023-04-03T15:36:11;13.70;53.20
1880;DHT22;49285;49.002;8.390;2023-04-03T15:38:37;13.60;53.90
1880;DHT22;49285;49.002;8.390;2023-04-03T15:41:04;13.60;54.50
1880;DHT22;49285;49.002;8.390;2023-04-03T15:43:30;13.80;54.70
1880;DHT22;49285;49.002;8.390;2023-04-03T15:45:57;14.00;54.70
1880;DHT22;49285;49.002;8.390;2023-04-03T15:48:23;14.00;54.80
1880;DHT22;49285;49.002;8.390;2023-04-03T15:50:49;14.20;54.20
1880;DHT22;49285;49.002;8.390;2023-04-03T15:53:15;14.20;53.90
1880;DHT22;49285;49.002;8.390;2023-04-03T15:55:40;14.20;53.30
1880;DHT22;49285;49.002;8.390;2023-04-03T15:58:07;14.10;53.40
1880;DHT22;49285;49.002;8.390;2023-04-03T16:00:33;13.80;52.90
1880;DHT22;49285;49.002;8.390;2023-04-03T16:03:03;13.70;52.80
1880;DHT22;49285;49.002;8.390;2023-04-03T16:05:29;13.60;53.10
1880;DHT22;49285;49.002;8.390;2023-04-03T16:07:57;13.80;53.60
1880;DHT22;49285;49.002;8.390;2023-04-03T16:10:24;13.80;53.50
1880;DHT22;49285;49.002;8.390;2023-04-03T16:12:50;13.90;53.60
1880;DHT22;49285;49.002;8.390;2023-04-03T16:15:16;14.10;53.60
1880;DHT22;49285;49.002;8.390;2023-04-03T16:17:41;14.20;52.70
1880;DHT22;49285;49.002;8.390;2023-04-03T16:20:08;14.10;51.90
1880;DHT22;49285;49.002;8.390;2023-04-03T16:22:34;14.00;51.60
1880;DHT22;49285;49.002;8.390;2023-04-03T16:25:00;13.90;51.80
1880;DHT22;49285;49.002;8.390;2023-04-03T16:27:26;13.70;51.10
1880;DHT22;49285;49.002;8.390;2023-04-03T16:29:54;13.50;51.00
1880;DHT22;49285;49.002;8.390;2023-04-03T16:32:20;13.50;51.50
1880;DHT22;49285;49.002;8.390;2023-04-03T16:34:47;13.40;51.80
1880;DHT22;49285;49.002;8.390;2023-04-03T16:37:12;13.50;52.00
1880;DHT22;49285;49.002;8.390;2023-04-03T16:39:38;13.40;52.10
1880;DHT22;49285;49.002;8.390;2023-04-03T16:42:03;13.40;52.10
1880;DHT22;49285;49.002;8.390;2023-04-03T16:44:29;13.40;52.00
1880;DHT22;49285;49.002;8.390;2023-04-03T16:46:55;13.30;51.90
1880;DHT22;49285;49.002;8.390;2023-04-03T16:49:20;13.20;51.40
1880;DHT22;49285;49.002;8.390;2023-04-03T16:51:48;13.10;51.40
1880;DHT22;49285;49.002;8.390;2023-04-03T16:54:14;12.90;51.30
1880;DHT22;49285;49.002;8.390;2023-04-03T16:56:39;12.80;51.50
1880;DHT22;49285;49.002;8.390;2023-04-03T16:59:05;12.60;51.50
1880;DHT22;49285;49.002;8.390;2023-04-03T17:01:31;12.50;51.90
1880;DHT22;49285;49.002;8.390;2023-04-03T17:03:57;12.30;51.90
1880;DHT22;49285;49.002;8.390;2023-04-03T17:06:23;12.20;52.10
1880;DHT22;49285;49.002;8.390;2023-04-03T17:08:50;12.00;52.50
1880;DHT22;49285;49.002;8.390;2023-04-03T17:11:16;11.90;52.80
1880;DHT22;49285;49.002;8.390;2023-04-03T17:13:42;11.80;53.00
1880;DHT22;49285;49.002;8.390;2023-04-03T17:16:11;11.80;53.20
1880;DHT22;49285;49.002;8.390;2023-04-03T17:18:38;11.70;53.10
1880;DHT22;49285;49.002;8.390;2023-04-03T17:21:04;11.60;53.10
1880;DHT22;49285;49.002;8.390;2023-04-03T17:23:31;11.50;53.20
1880;DHT22;49285;49.002;8.390;2023-04-03T17:25:59;11.40;53.40
1880;DHT22;49285;49.002;8.390;2023-04-03T17:28:24;11.30;54.20
1880;DHT22;49285;49.002;8.390;2023-04-03T17:30:57;11.30;54.30
1880;DHT22;49285;49.002;8.390;2023-04-03T17:33:24;11.20;54.30
1880;DHT22;49285;49.002;8.390;2023-04-03T17:35:51;11.10;54.40
1880;DHT22;49285;49.002;8.390;2023-04-03T17:38:16;11.10;55.20
1880;DHT22;49285;49.002;8.390;2023-04-03T17:40:42;11.00;54.80
1880;DHT22;49285;49.002;8.390;2023-04-03T17:43:09;10.80;55.10
1880;DHT22;49285;49.002;8.390;2023-04-03T17:45:35;10.80;55.20
1880;DHT22;49285;49.002;8.390;2023-04-03T17:48:01;10.70;55.10
1880;DHT22;49285;49.002;8.390;2023-04-03T17:50:26;10.70;55.20
1880;DHT22;49285;49.002;8.390;2023-04-03T17:52:53;10.60;55.30
1880;DHT22;49285;49.002;8.390;2023-04-03T17:55:18;10.60;55.40
1880;DHT22;49285;49.002;8.390;2023-04-03T17:57:44;10.40;55.60
1880;DHT22;49285;49.002;8.390;2023-04-03T18:00:10;10.40;55.70